createdAt,value
2022-09-04T00:01:40.068Z,95302.22
2022-09-04T00:04:27.001Z,95303.50
2022-09-04T00:07:08.723Z,95301.38
2022-09-04T00:09:43.690Z,95307.19
2022-09-04T00:12:11.806Z,95305.88
2022-09-04T00:14:46.415Z,95312.06
2022-09-04T00:17:21.263Z,95313.16
2022-09-04T00:19:56.398Z,95318.44
2022-09-04T00:22:35.364Z,95317.41
2022-09-04T00:25:12.106Z,95326.41
2022-09-04T00:27:45.191Z,95326.94
2022-09-04T00:30:19.872Z,95316.94
2022-09-04T00:32:55.920Z,95316.16
2022-09-04T00:35:31.363Z,95309.50
2022-09-04T00:38:04.437Z,95317.41
2022-09-04T00:40:35.811Z,95313.72
2022-09-04T00:43:39.692Z,95318.50
2022-09-04T00:46:29.810Z,95323.84
2022-09-04T00:49:30.075Z,95327.06
2022-09-04T00:52:12.175Z,95318.63
2022-09-04T00:54:55.282Z,95329.25
2022-09-04T00:58:12.657Z,95333.50
2022-09-04T01:00:40.719Z,95329.78
2022-09-04T01:03:39.320Z,95318.66
2022-09-04T01:06:20.155Z,95319.19
2022-09-04T01:09:08.260Z,95315.97
2022-09-04T01:11:43.259Z,95312.22
2022-09-04T01:14:19.902Z,95307.16
2022-09-04T01:16:54.251Z,95310.88
2022-09-04T01:19:44.291Z,95306.97
2022-09-04T01:22:56.901Z,95301.69
2022-09-04T01:25:35.826Z,95300.09
2022-09-04T01:28:09.392Z,95298.41
2022-09-04T01:30:47.159Z,95295.22
2022-09-04T01:33:24.273Z,95298.38
2022-09-04T01:36:02.146Z,95291.00
2022-09-04T01:38:38.316Z,95314.28
2022-09-04T01:41:16.664Z,95304.75
2022-09-04T01:43:46.019Z,95297.59
2022-09-04T01:46:33.700Z,95300.53
2022-09-04T01:49:08.130Z,95296.91
2022-09-04T01:51:41.638Z,95307.50
2022-09-04T01:54:22.070Z,95311.47
2022-09-04T01:57:00.786Z,95308.56
2022-09-04T01:59:35.735Z,95294.81
2022-09-04T02:02:16.228Z,95310.16
2022-09-04T02:04:54.620Z,95307.50
2022-09-04T02:07:31.720Z,95301.69
2022-09-04T02:10:09.119Z,95309.66
2022-09-04T02:12:43.201Z,95305.94
2022-09-04T02:15:23.688Z,95310.19
2022-09-04T02:18:02.906Z,95304.38
2022-09-04T02:20:32.393Z,95301.75
2022-09-04T02:23:11.811Z,95297.81
2022-09-04T02:25:46.303Z,95303.09
2022-09-04T02:28:30.859Z,95296.47
2022-09-04T02:31:06.789Z,95315.50
2022-09-04T02:33:42.998Z,95316.59
2022-09-04T02:36:19.733Z,95317.13
2022-09-04T02:38:57.178Z,95308.38
2022-09-04T02:41:34.667Z,95309.16
2022-09-04T02:44:19.883Z,95315.50
2022-09-04T02:47:02.548Z,95307.03
2022-09-04T02:49:41.133Z,95301.50
2022-09-04T02:52:25.780Z,95311.56
2022-09-04T02:55:12.384Z,95307.09
2022-09-04T02:57:55.108Z,95309.47
2022-09-04T03:00:26.025Z,95302.84
2022-09-04T03:03:01.780Z,95303.38
2022-09-04T03:05:34.472Z,95305.25
2022-09-04T03:08:10.228Z,95307.09
2022-09-04T03:10:45.260Z,95303.91
2022-09-04T03:13:23.320Z,95315.03
2022-09-04T03:15:55.719Z,95304.44
2022-09-04T03:18:31.620Z,95313.41
2022-09-04T03:21:06.359Z,95308.13
2022-09-04T03:23:44.265Z,95306.00
2022-09-04T03:26:20.862Z,95308.41
2022-09-04T03:29:01.050Z,95313.69
2022-09-04T03:31:34.319Z,95310.25
2022-09-04T03:34:27.348Z,95316.09
2022-09-04T03:37:20.680Z,95311.59
2022-09-04T03:40:00.768Z,95317.16
2022-09-04T03:42:39.931Z,95327.16
2022-09-04T03:45:21.348Z,95326.66
2022-09-04T03:48:05.747Z,95326.91
2022-09-04T03:50:45.204Z,95329.81
2022-09-04T03:53:21.864Z,95322.41
2022-09-04T03:56:25.446Z,95318.72
2022-09-04T03:59:03.126Z,95334.03
2022-09-04T04:01:43.090Z,95328.25
2022-09-04T04:04:52.219Z,95327.72
2022-09-04T04:07:35.532Z,95340.91
2022-09-04T04:10:19.612Z,95342.25
2022-09-04T04:13:12.400Z,95344.63
2022-09-04T04:15:52.349Z,95346.19
2022-09-04T04:18:44.501Z,95346.72
2022-09-04T04:21:23.617Z,95348.84
2022-09-04T04:24:22.827Z,95348.06
2022-09-04T04:27:07.820Z,95346.22
2022-09-04T04:30:01.794Z,95349.38
2022-09-04T04:32:44.126Z,95350.97
2022-09-04T04:35:22.382Z,95346.22
2022-09-04T04:38:01.481Z,95356.78
2022-09-04T04:40:45.641Z,95350.97
2022-09-04T04:43:21.216Z,95359.41
2022-09-04T04:45:55.089Z,95360.22
2022-09-04T04:49:05.362Z,95353.59
2022-09-04T04:51:53.429Z,95359.94
2022-09-04T04:54:38.883Z,95362.59
2022-09-04T04:57:19.299Z,95361.00
2022-09-04T04:59:55.851Z,95358.88
2022-09-04T05:02:29.989Z,95363.66
2022-09-04T05:05:03.665Z,95368.41
2022-09-04T05:07:39.054Z,95371.06
2022-09-04T05:10:17.739Z,95364.16
2022-09-04T05:13:00.297Z,95378.44
2022-09-04T05:15:43.802Z,95367.88
2022-09-04T05:18:27.087Z,95378.44
2022-09-04T05:21:00.924Z,95373.69
2022-09-04T05:23:40.730Z,95372.63
2022-09-04T05:26:14.519Z,95365.22
2022-09-04T05:28:51.769Z,95367.34
2022-09-04T05:31:29.906Z,95370.50
2022-09-04T05:34:05.847Z,95371.03
2022-09-04T05:36:46.027Z,95375.78
2022-09-04T05:39:24.098Z,95385.81
2022-09-04T05:42:06.631Z,95382.09
2022-09-04T05:44:53.312Z,95388.47
2022-09-04T05:47:34.363Z,95388.22
2022-09-04T05:50:29.408Z,95388.97
2022-09-04T05:53:15.922Z,95399.53
2022-09-04T05:55:59.863Z,95407.47
2022-09-04T05:58:46.291Z,95402.69
2022-09-04T06:01:33.162Z,95408.50
2022-09-04T06:04:22.805Z,95409.56
2022-09-04T06:07:02.277Z,95420.66
2022-09-04T06:09:50.876Z,95421.19
2022-09-04T06:12:36.665Z,95421.19
2022-09-04T06:15:15.139Z,95414.88
2022-09-04T06:18:05.217Z,95418.59
2022-09-04T06:20:45.533Z,95419.66
2022-09-04T06:23:37.394Z,95422.56
2022-09-04T06:26:28.844Z,95421.75
2022-09-04T06:29:17.297Z,95422.81
2022-09-04T06:32:20.618Z,95416.50
2022-09-04T06:35:28.497Z,95424.41
2022-09-04T06:38:13.935Z,95416.00
2022-09-04T06:40:56.660Z,95420.25
2022-09-04T06:43:34.746Z,95426.59
2022-09-04T06:46:20.315Z,95427.16
2022-09-04T06:49:00.319Z,95424.47
2022-09-04T06:51:44.133Z,95430.31
2022-09-04T06:54:24.027Z,95427.63
2022-09-04T06:57:10.571Z,95437.16
2022-09-04T07:00:03.879Z,95436.66
2022-09-04T07:02:55.580Z,95439.81
2022-09-04T07:05:31.046Z,95445.59
2022-09-04T07:08:09.178Z,95438.72
2022-09-04T07:10:41.215Z,95439.50
2022-09-04T07:13:37.576Z,95450.84
2022-09-04T07:16:31.291Z,95431.81
2022-09-04T07:19:22.101Z,95438.38
2022-09-04T07:22:03.983Z,95437.31
2022-09-04T07:24:51.159Z,95438.88
2022-09-04T07:27:36.398Z,95436.47
2022-09-04T07:30:07.590Z,95441.72
2022-09-04T07:32:39.328Z,95439.84
2022-09-04T07:35:14.631Z,95441.44
2022-09-04T07:37:52.621Z,95443.56
2022-09-04T07:40:27.915Z,95445.41
2022-09-04T07:43:06.956Z,95450.66
2022-09-04T07:45:39.505Z,95442.66
2022-09-04T07:48:19.651Z,95452.22
2022-09-04T07:51:04.675Z,95452.78
2022-09-04T07:53:50.633Z,95461.69
2022-09-04T07:56:30.180Z,95462.25
2022-09-04T07:59:14.256Z,95467.03
2022-09-04T08:01:53.911Z,95467.84
2022-09-04T08:04:40.517Z,95465.22
2022-09-04T08:07:16.986Z,95463.97
2022-09-04T08:10:18.489Z,95463.88
2022-09-04T08:13:09.830Z,95470.16
2022-09-04T08:15:43.982Z,95472.78
2022-09-04T08:18:25.892Z,95481.16
2022-09-04T08:21:10.136Z,95487.56
2022-09-04T08:24:19.648Z,95492.25
2022-09-04T08:27:06.063Z,95482.09
2022-09-04T08:29:49.428Z,95484.19
2022-09-04T08:32:37.174Z,95489.78
2022-09-04T08:35:23.764Z,95482.69
2022-09-04T08:38:08.468Z,95485.59
2022-09-04T08:41:01.862Z,95486.84
2022-09-04T08:43:39.674Z,95494.88
2022-09-04T08:46:55.283Z,95497.50
2022-09-04T08:50:14.781Z,95493.16
2022-09-04T08:53:20.858Z,95495.72
2022-09-04T08:55:59.896Z,95495.72
2022-09-04T08:59:09.474Z,95493.56
2022-09-04T09:02:30.132Z,95489.19
2022-09-04T09:05:33.558Z,95485.78
2022-09-04T09:08:31.413Z,95490.31
2022-09-04T09:11:24.661Z,95488.16
2022-09-04T09:14:25.671Z,95487.00
2022-09-04T09:17:05.960Z,95494.34
2022-09-04T09:19:45.602Z,95492.75
2022-09-04T09:22:37.550Z,95504.97
2022-09-04T09:25:20.888Z,95495.56
2022-09-04T09:28:20.107Z,95499.75
2022-09-04T09:31:34.556Z,95498.03
2022-09-04T09:34:41.540Z,95494.63
2022-09-04T09:37:35.219Z,95496.75
2022-09-04T09:40:23.441Z,95494.63
2022-09-04T09:43:19.069Z,95490.47
2022-09-04T09:46:12.235Z,95497.00
2022-09-04T09:49:15.112Z,95489.94
2022-09-04T09:52:03.615Z,95492.03
2022-09-04T09:55:09.035Z,95491.47
2022-09-04T09:58:03.453Z,95490.31
2022-09-04T10:00:39.771Z,95482.25
2022-09-04T10:03:56.704Z,95486.00
2022-09-04T10:07:00.349Z,95491.03
2022-09-04T10:10:10.893Z,95488.47
2022-09-04T10:13:09.957Z,95491.78
2022-09-04T10:16:08.395Z,95484.44
2022-09-04T10:18:57.203Z,95487.38
2022-09-04T10:21:52.021Z,95493.25
2022-09-04T10:25:04.056Z,95492.53
2022-09-04T10:28:03.133Z,95487.78
2022-09-04T10:30:50.163Z,95481.28
2022-09-04T10:33:31.987Z,95480.41
2022-09-04T10:36:19.739Z,95484.66
2022-09-04T10:39:23.016Z,95487.59
2022-09-04T10:42:05.560Z,95482.13
2022-09-04T10:45:12.007Z,95484.13
2022-09-04T10:48:12.875Z,95488.47
2022-09-04T10:51:02.061Z,95485.94
2022-09-04T10:54:14.182Z,95483.19
2022-09-04T10:56:50.249Z,95483.97
2022-09-04T10:59:44.772Z,95492.44
2022-09-04T11:02:26.521Z,95486.09
2022-09-04T11:05:18.965Z,95477.25
2022-09-04T11:08:13.690Z,95480.28
2022-09-04T11:11:03.895Z,95481.25
2022-09-04T11:13:58.138Z,95484.44
2022-09-04T11:16:57.403Z,95480.00
2022-09-04T11:19:58.103Z,95485.84
2022-09-04T11:23:01.170Z,95486.22
2022-09-04T11:26:05.834Z,95485.53
2022-09-04T11:29:10.997Z,95482.38
2022-09-04T11:32:00.023Z,95485.03
2022-09-04T11:35:00.824Z,95481.28
2022-09-04T11:38:18.599Z,95475.94
2022-09-04T11:41:28.307Z,95473.06
2022-09-04T11:44:29.859Z,95474.53
2022-09-04T11:47:31.481Z,95478.66
2022-09-04T11:50:16.613Z,95483.59
2022-09-04T11:53:08.131Z,95480.81
2022-09-04T11:56:03.985Z,95479.91
2022-09-04T11:58:52.177Z,95479.09
2022-09-04T12:01:36.640Z,95483.00
2022-09-04T12:04:30.637Z,95475.94
2022-09-04T12:07:14.135Z,95475.22
2022-09-04T12:10:02.926Z,95480.56
2022-09-04T12:13:14.546Z,95472.31
2022-09-04T12:16:10.811Z,95467.94
2022-09-04T12:19:27.467Z,95466.91
2022-09-04T12:22:50.286Z,95459.94
2022-09-04T12:25:41.220Z,95455.97
2022-09-04T12:28:48.938Z,95458.38
2022-09-04T12:31:40.345Z,95459.59
2022-09-04T12:34:27.134Z,95461.34
2022-09-04T12:37:27.560Z,95448.44
2022-09-04T12:40:31.758Z,95455.72
2022-09-04T12:43:13.136Z,95453.28
2022-09-04T12:45:49.863Z,95445.91
2022-09-04T12:48:32.915Z,95443.88
2022-09-04T12:51:12.107Z,95454.59
2022-09-04T12:54:04.307Z,95449.72
2022-09-04T12:56:49.082Z,95449.84
2022-09-04T12:59:35.824Z,95442.94
2022-09-04T13:02:14.131Z,95445.00
2022-09-04T13:04:57.542Z,95434.78
2022-09-04T13:07:44.020Z,95440.84
2022-09-04T13:10:23.892Z,95441.91
2022-09-04T13:13:04.056Z,95437.56
2022-09-04T13:15:49.379Z,95443.59
2022-09-04T13:18:43.299Z,95448.31
2022-09-04T13:21:27.431Z,95443.63
2022-09-04T13:24:16.068Z,95435.44
2022-09-04T13:27:02.564Z,95434.19
2022-09-04T13:29:44.561Z,95436.44
2022-09-04T13:32:41.890Z,95438.31
2022-09-04T13:35:19.520Z,95432.78
2022-09-04T13:38:11.656Z,95433.88
2022-09-04T13:41:09.645Z,95438.63
2022-09-04T13:44:01.745Z,95428.22
2022-09-04T13:46:33.979Z,95430.09
2022-09-04T13:49:06.393Z,95431.69
2022-09-04T13:51:39.926Z,95431.03
2022-09-04T13:54:13.729Z,95438.00
2022-09-04T13:56:47.055Z,95426.97
2022-09-04T13:59:18.515Z,95435.31
2022-09-04T14:01:52.543Z,95427.25
2022-09-04T14:04:26.602Z,95428.53
2022-09-04T14:07:02.471Z,95430.38
2022-09-04T14:09:36.102Z,95425.34
2022-09-04T14:12:23.140Z,95420.16
2022-09-04T14:15:31.444Z,95425.16
2022-09-04T14:18:13.520Z,95420.53
2022-09-04T14:21:00.955Z,95428.91
2022-09-04T14:23:42.915Z,95424.91
2022-09-04T14:26:24.536Z,95424.63
2022-09-04T14:28:59.394Z,95420.97
2022-09-04T14:31:35.343Z,95440.25
2022-09-04T14:34:17.478Z,95433.06
2022-09-04T14:36:56.591Z,95434.22
2022-09-04T14:39:31.509Z,95430.03
2022-09-04T14:42:22.236Z,95434.13
2022-09-04T14:45:01.701Z,95430.44
2022-09-04T14:47:40.221Z,95424.31
2022-09-04T14:50:09.853Z,95422.78
2022-09-04T14:52:42.570Z,95420.63
2022-09-04T14:55:16.981Z,95413.94
2022-09-04T14:57:51.346Z,95411.44
2022-09-04T15:00:20.902Z,95405.06
2022-09-04T15:02:58.094Z,95405.72
2022-09-04T15:05:31.875Z,95402.69
2022-09-04T15:08:02.839Z,95407.19
2022-09-04T15:10:47.603Z,95399.13
2022-09-04T15:13:48.318Z,95397.56
2022-09-04T15:16:24.978Z,95395.06
2022-09-04T15:19:05.055Z,95389.84
2022-09-04T15:21:40.628Z,95388.28
2022-09-04T15:24:18.246Z,95389.78
2022-09-04T15:26:55.748Z,95385.59
2022-09-04T15:29:32.133Z,95383.31
2022-09-04T15:32:01.846Z,95386.88
2022-09-04T15:34:31.378Z,95385.72
2022-09-04T15:37:12.217Z,95388.03
2022-09-04T15:39:50.461Z,95382.53
2022-09-04T15:42:36.144Z,95379.78
2022-09-04T15:45:15.549Z,95374.97
2022-09-04T15:48:06.491Z,95373.41
2022-09-04T15:50:40.379Z,95374.81
2022-09-04T15:53:26.414Z,95376.53
2022-09-04T15:56:06.319Z,95375.09
2022-09-04T15:58:41.547Z,95374.41
2022-09-04T16:01:16.985Z,95372.44
2022-09-04T16:04:00.169Z,95367.72
2022-09-04T16:06:32.815Z,95358.84
2022-09-04T16:09:06.683Z,95362.31
2022-09-04T16:11:39.128Z,95360.69
2022-09-04T16:14:12.749Z,95361.44
2022-09-04T16:16:48.604Z,95354.72
2022-09-04T16:19:25.859Z,95353.44
2022-09-04T16:22:05.838Z,95358.13
2022-09-04T16:24:40.008Z,95355.25
2022-09-04T16:27:12.385Z,95353.44
2022-09-04T16:29:46.233Z,95349.34
2022-09-04T16:32:22.210Z,95354.34
2022-09-04T16:34:55.150Z,95341.59
2022-09-04T16:37:28.665Z,95345.81
2022-09-04T16:40:04.635Z,95344.13
2022-09-04T16:42:40.293Z,95337.72
2022-09-04T16:45:15.451Z,95343.38
2022-09-04T16:47:51.161Z,95338.00
2022-09-04T16:50:25.933Z,95336.63
2022-09-04T16:53:13.353Z,95330.38
2022-09-04T16:55:59.317Z,95330.91
2022-09-04T16:58:40.271Z,95325.41
2022-09-04T17:01:16.746Z,95314.69
2022-09-04T17:04:13.422Z,95327.41
2022-09-04T17:06:56.379Z,95320.03
2022-09-04T17:09:32.124Z,95324.22
2022-09-04T17:12:17.766Z,95327.78
2022-09-04T17:14:51.967Z,95332.09
2022-09-04T17:17:29.990Z,95333.69
2022-09-04T17:20:07.349Z,95333.78
2022-09-04T17:28:19.027Z,95331.03
2022-09-04T17:29:09.934Z,95339.53
2022-09-04T17:29:18.800Z,95347.13
2022-09-04T17:31:45.883Z,95347.97
2022-09-04T17:40:31.897Z,95340.00
2022-09-04T17:40:41.634Z,95339.59
2022-09-04T17:40:53.764Z,95335.22
2022-09-04T17:43:24.326Z,95351.63
2022-09-04T17:46:07.692Z,95344.06
2022-09-04T17:48:42.826Z,95346.00
2022-09-04T17:51:18.856Z,95353.22
2022-09-04T17:53:52.820Z,95353.03
2022-09-04T17:56:25.898Z,95352.25
2022-09-04T17:59:02.067Z,95343.06
2022-09-04T18:01:36.600Z,95353.06
2022-09-04T18:04:27.241Z,95346.44
2022-09-04T18:07:39.591Z,95351.09
2022-09-04T18:10:04.064Z,95357.31
2022-09-04T18:12:38.827Z,95356.38
2022-09-04T18:15:33.951Z,95355.13
2022-09-04T18:18:11.905Z,95352.25
2022-09-04T18:20:45.253Z,95354.47
2022-09-04T18:23:23.160Z,95361.47
2022-09-04T18:25:57.498Z,95374.47
2022-09-04T18:28:33.708Z,95371.94
2022-09-04T18:37:09.265Z,95370.50
2022-09-04T18:37:18.792Z,95379.09
2022-09-04T18:37:24.172Z,95392.09
2022-09-04T18:40:03.822Z,95397.56
2022-09-04T18:49:15.967Z,95397.06
2022-09-04T18:50:31.399Z,95404.88
2022-09-04T18:50:32.525Z,95399.81
2022-09-04T18:51:30.531Z,95412.72
2022-09-04T18:54:04.009Z,95411.75
2022-09-04T18:56:37.797Z,95414.09
2022-09-04T18:59:11.713Z,95421.13
2022-09-04T19:01:44.267Z,95425.38
2022-09-04T19:04:38.945Z,95422.22
2022-09-04T19:07:11.700Z,95430.72
2022-09-04T19:10:09.450Z,95439.81
2022-09-04T19:12:47.978Z,95437.84
2022-09-04T19:15:36.903Z,95446.94
2022-09-04T19:18:15.126Z,95443.75
2022-09-04T19:20:48.310Z,95451.44
2022-09-04T19:23:26.604Z,95453.63
2022-09-04T19:25:57.545Z,95453.19
2022-09-04T19:28:35.680Z,95455.34
2022-09-04T19:31:16.464Z,95457.53
2022-09-04T19:33:50.495Z,95451.41
2022-09-04T19:36:24.763Z,95448.94
2022-09-04T19:44:44.513Z,95457.94
2022-09-04T19:46:15.503Z,95465.03
2022-09-04T19:46:16.322Z,95466.22
2022-09-04T19:47:57.946Z,95467.50
2022-09-04T19:53:31.358Z,95459.00
2022-09-04T19:53:41.190Z,95467.28
2022-09-04T19:56:31.373Z,95473.88
2022-09-04T19:59:06.660Z,95474.19
2022-09-04T20:01:45.753Z,95474.38
2022-09-04T20:04:26.549Z,95477.91
2022-09-04T20:06:59.543Z,95482.44
2022-09-04T20:09:34.271Z,95486.59
2022-09-04T20:12:11.879Z,95493.53
2022-09-04T20:14:47.033Z,95488.84
2022-09-04T20:17:30.536Z,95492.06
2022-09-04T20:20:04.383Z,95485.66
2022-09-04T20:22:37.741Z,95487.78
2022-09-04T20:25:30.449Z,95493.31
2022-09-04T20:28:08.750Z,95486.91
2022-09-04T20:30:38.902Z,95488.19
2022-09-04T20:33:12.544Z,95489.78
2022-09-04T20:35:46.755Z,95494.00
2022-09-04T20:38:24.251Z,95486.59
2022-09-04T20:40:57.157Z,95493.53
2022-09-04T20:43:32.256Z,95490.34
2022-09-04T20:51:29.328Z,95494.09
2022-09-04T20:52:50.064Z,95497.19
2022-09-04T20:53:05.702Z,95499.13
2022-09-04T20:55:12.666Z,95510.94
2022-09-04T21:02:47.291Z,95500.56
2022-09-04T21:03:14.705Z,95506.75
2022-09-04T21:04:05.564Z,95506.31
2022-09-04T21:06:39.804Z,95502.56
2022-09-04T21:09:18.592Z,95494.88
2022-09-04T21:11:51.024Z,95512.63
2022-09-04T21:14:27.335Z,95511.63
2022-09-04T21:17:36.118Z,95513.78
2022-09-04T21:20:59.317Z,95511.25
2022-09-04T21:24:03.052Z,95519.81
2022-09-04T21:26:50.764Z,95520.81
2022-09-04T21:29:40.610Z,95523.22
2022-09-04T21:32:29.941Z,95528.19
2022-09-04T21:35:07.989Z,95528.81
2022-09-04T21:37:46.637Z,95528.81
2022-09-04T21:40:51.034Z,95530.16
2022-09-04T21:43:58.920Z,95545.06
2022-09-04T21:46:43.736Z,95548.00
2022-09-04T21:49:44.756Z,95551.16
2022-09-04T21:52:33.099Z,95557.56
2022-09-04T21:59:04.666Z,95560.22
2022-09-04T22:02:42.419Z,95562.38
2022-09-04T22:02:43.254Z,95566.06
2022-09-04T22:04:38.587Z,95568.28
2022-09-04T22:10:08.429Z,95563.97
2022-09-04T22:13:30.398Z,95571.66
2022-09-04T22:13:33.323Z,95577.78
2022-09-04T22:16:25.988Z,95582.09
2022-09-04T22:19:16.548Z,95579.44
2022-09-04T22:22:03.867Z,95589.56
2022-09-04T22:25:01.812Z,95588.19
2022-09-04T22:28:08.293Z,95588.47
2022-09-04T22:31:04.556Z,95590.72
2022-09-04T22:34:16.923Z,95584.94
2022-09-04T22:37:15.852Z,95579.16
2022-09-04T22:40:04.705Z,95584.03
2022-09-04T22:42:49.104Z,95590.94
2022-09-04T22:45:49.769Z,95603.16
2022-09-04T22:49:11.775Z,95601.13
2022-09-04T22:52:00.990Z,95603.31
2022-09-04T22:54:55.563Z,95604.81
2022-09-04T22:57:31.597Z,95606.22
2022-09-04T23:00:11.931Z,95601.94
2022-09-04T23:03:09.111Z,95606.13
2022-09-04T23:08:53.545Z,95606.13
2022-09-04T23:13:59.884Z,95610.38
2022-09-04T23:13:59.885Z,95605.34
2022-09-04T23:16:27.750Z,95620.25
2022-09-04T23:26:31.312Z,95611.53
2022-09-04T23:26:39.094Z,95620.59
2022-09-04T23:26:43.776Z,95622.72
2022-09-04T23:28:40.428Z,95626.19
2022-09-04T23:31:46.229Z,95626.47
2022-09-04T23:34:39.013Z,95632.81
2022-09-04T23:37:33.071Z,95640.97
2022-09-04T23:40:28.479Z,95652.38
2022-09-04T23:43:16.469Z,95651.03
2022-09-04T23:46:32.397Z,95655.56
2022-09-04T23:49:32.140Z,95648.91
2022-09-04T23:52:09.019Z,95619.28
2022-09-04T23:54:59.489Z,95629.41
2022-09-04T23:57:30.048Z,95615.88
